createdAt,value
2024-03-05T00:01:04.704Z,66.67
2024-03-05T00:03:32.923Z,66.88
2024-03-05T00:06:24.978Z,67.21
2024-03-05T00:08:53.217Z,67.34
2024-03-05T00:11:56.621Z,67.76
2024-03-05T00:17:55.059Z,67.56
2024-03-05T00:20:46.073Z,68.15
2024-03-05T00:23:14.825Z,68.15
2024-03-05T00:25:49.748Z,68.03
2024-03-05T00:28:20.560Z,68.59
2024-03-05T00:30:48.710Z,68.30
2024-03-05T00:33:17.271Z,68.12
2024-03-05T00:35:49.027Z,68.89
2024-03-05T00:38:22.226Z,69.50
2024-03-05T00:40:58.589Z,69.07
2024-03-05T00:43:26.766Z,69.31
2024-03-05T00:45:55.465Z,70.07
2024-03-05T00:48:23.467Z,70.12
2024-03-05T00:50:57.562Z,70.98
2024-03-05T01:57:15.917Z,73.20
2024-03-05T02:03:56.755Z,73.46
2024-03-05T02:06:24.968Z,73.63
2024-03-05T02:09:12.175Z,73.13
2024-03-05T02:11:59.782Z,73.13
2024-03-05T02:14:34.703Z,72.51
2024-03-05T02:17:02.797Z,73.37
2024-03-05T02:19:36.870Z,73.03
2024-03-05T02:22:07.480Z,73.33
2024-03-05T02:24:44.144Z,73.02
2024-03-05T02:27:17.338Z,73.04
2024-03-05T02:29:50.081Z,73.62
2024-03-05T02:32:18.158Z,73.65
2024-03-05T02:34:46.558Z,73.39
2024-03-05T02:37:14.699Z,73.20
2024-03-05T02:39:42.615Z,73.26
2024-03-05T02:42:10.504Z,72.72
2024-03-05T02:44:38.389Z,72.80
2024-03-05T02:47:06.679Z,72.60
2024-03-05T02:49:36.139Z,72.28
2024-03-05T02:52:04.546Z,72.17
2024-03-05T02:54:32.477Z,72.05
2024-03-05T02:57:00.439Z,71.91
2024-03-05T02:59:28.396Z,71.80
2024-03-05T03:01:56.385Z,71.95
2024-03-05T03:04:24.426Z,71.57
2024-03-05T03:06:52.363Z,71.85
2024-03-05T03:09:26.994Z,71.88
2024-03-05T03:11:57.258Z,71.93
2024-03-05T03:14:52.285Z,71.55
2024-03-05T03:17:35.970Z,71.72
2024-03-05T03:20:11.425Z,71.59
2024-03-05T03:22:51.028Z,71.33
2024-03-05T03:28:17.102Z,71.50
2024-03-05T03:33:42.128Z,71.47
2024-03-05T03:36:17.875Z,71.28
2024-03-05T03:38:46.068Z,71.64
2024-03-05T03:44:05.932Z,71.92
2024-03-05T03:46:49.398Z,71.77
2024-03-05T03:49:29.203Z,72.02
2024-03-05T03:52:04.196Z,72.30
2024-03-05T03:54:40.899Z,72.09
2024-03-05T03:57:12.773Z,72.03
2024-03-05T03:59:42.296Z,72.00
2024-03-05T04:02:39.455Z,71.75
2024-03-05T04:05:11.572Z,72.02
2024-03-05T04:07:44.416Z,71.94
2024-03-05T04:12:58.258Z,72.35
2024-03-05T04:15:29.609Z,71.93
2024-03-05T04:17:59.948Z,72.13
2024-03-05T04:20:29.098Z,72.13
2024-03-05T04:22:57.147Z,72.23
2024-03-05T04:25:32.042Z,72.40
2024-03-05T04:28:02.093Z,72.14
2024-03-05T04:30:30.476Z,72.38
2024-03-05T04:33:05.896Z,72.93
2024-03-05T04:35:34.832Z,72.74
2024-03-05T04:38:05.831Z,73.23
2024-03-05T04:40:37.314Z,72.85
2024-03-05T04:43:07.835Z,73.12
2024-03-05T04:45:36.575Z,73.22
2024-03-05T04:48:04.777Z,73.46
2024-03-05T04:50:32.920Z,73.56
2024-03-05T04:53:01.601Z,73.56
2024-03-05T04:55:29.599Z,73.62
2024-03-05T04:57:57.689Z,73.68
2024-03-05T05:00:25.692Z,74.19
2024-03-05T05:02:54.450Z,74.15
2024-03-05T05:05:27.505Z,74.49
2024-03-05T05:07:58.045Z,74.53
2024-03-05T05:10:26.365Z,74.25
2024-03-05T05:12:54.763Z,75.10
2024-03-05T05:15:25.557Z,75.29
2024-03-05T05:17:54.115Z,75.73
2024-03-05T05:20:22.055Z,75.86
2024-03-05T05:22:50.010Z,75.62
2024-03-05T05:25:18.662Z,76.08
2024-03-05T05:27:46.731Z,76.20
2024-03-05T05:30:15.635Z,75.92
2024-03-05T05:32:44.269Z,76.13
2024-03-05T05:35:12.205Z,76.04
2024-03-05T05:37:40.149Z,75.91
2024-03-05T05:40:13.006Z,76.24
2024-03-05T05:42:41.653Z,76.60
2024-03-05T05:45:14.499Z,76.87
2024-03-05T05:47:53.783Z,77.03
2024-03-05T05:50:24.296Z,76.89
2024-03-05T05:52:55.151Z,77.08
2024-03-05T05:55:25.540Z,77.11
2024-03-05T05:57:54.581Z,77.45
2024-03-05T06:00:41.580Z,77.24
2024-03-05T06:03:10.187Z,77.39
2024-03-05T06:05:38.733Z,77.06
2024-03-05T06:08:13.620Z,76.97
2024-03-05T06:10:44.249Z,77.25
2024-03-05T06:13:12.924Z,77.39
2024-03-05T06:15:41.347Z,77.21
2024-03-05T06:18:10.080Z,77.32
2024-03-05T06:20:38.257Z,77.04
2024-03-05T06:23:06.554Z,77.10
2024-03-05T06:25:35.574Z,76.99
2024-03-05T06:28:04.027Z,76.91
2024-03-05T06:30:31.958Z,77.01
2024-03-05T06:32:59.872Z,77.15
2024-03-05T06:35:31.026Z,77.15
2024-03-05T06:37:59.461Z,77.59
2024-03-05T06:40:28.093Z,77.85
2024-03-05T06:43:06.230Z,77.76
2024-03-05T06:45:36.725Z,77.48
2024-03-05T06:48:17.258Z,77.70
2024-03-05T06:50:49.408Z,77.85
2024-03-05T06:53:35.430Z,77.93
2024-03-05T06:56:21.771Z,78.13
2024-03-05T06:58:49.915Z,78.49
2024-03-05T07:01:22.069Z,77.92
2024-03-05T07:03:51.075Z,77.84
2024-03-05T07:06:22.062Z,78.36
2024-03-05T07:08:50.706Z,78.29
2024-03-05T07:11:19.095Z,78.51
2024-03-05T07:13:51.506Z,78.85
2024-03-05T07:16:20.668Z,78.83
2024-03-05T07:18:50.145Z,78.65
2024-03-05T07:21:22.258Z,78.82
2024-03-05T07:23:50.969Z,78.40
2024-03-05T07:26:19.830Z,78.70
2024-03-05T07:28:48.107Z,78.68
2024-03-05T07:31:18.099Z,78.54
2024-03-05T07:33:49.888Z,78.64
2024-03-05T07:36:20.453Z,78.97
2024-03-05T07:38:48.440Z,78.64
2024-03-05T07:41:23.179Z,78.67
2024-03-05T07:43:58.044Z,78.82
2024-03-05T07:46:26.259Z,78.87
2024-03-05T07:48:56.118Z,78.79
2024-03-05T07:51:28.321Z,78.83
2024-03-05T07:53:58.105Z,78.97
2024-03-05T07:56:26.148Z,78.71
2024-03-05T07:58:55.201Z,78.75
2024-03-05T08:01:23.192Z,78.50
2024-03-05T08:03:51.124Z,78.44
2024-03-05T08:06:19.250Z,78.29
2024-03-05T08:08:47.114Z,77.93
2024-03-05T08:11:15.498Z,78.12
2024-03-05T08:13:43.715Z,78.02
2024-03-05T08:16:12.152Z,78.13
2024-03-05T08:18:41.652Z,77.91
2024-03-05T08:21:09.586Z,77.71
2024-03-05T08:23:37.666Z,77.34
2024-03-05T08:26:07.216Z,77.17
2024-03-05T08:28:35.216Z,77.34
2024-03-05T08:31:03.237Z,77.32
2024-03-05T08:33:34.284Z,77.67
2024-03-05T08:36:02.182Z,78.08
2024-03-05T08:38:30.151Z,78.21
2024-03-05T08:40:58.122Z,78.00
2024-03-05T08:43:26.196Z,78.81
2024-03-05T08:45:54.065Z,78.58
2024-03-05T08:48:21.942Z,78.90
2024-03-05T08:50:49.857Z,78.77
2024-03-05T08:53:17.814Z,78.84
2024-03-05T08:55:45.740Z,78.93
2024-03-05T08:58:20.023Z,79.10
2024-03-05T09:00:48.008Z,79.16
2024-03-05T09:03:15.941Z,79.28
2024-03-05T09:05:46.529Z,79.03
2024-03-05T09:08:16.304Z,79.11
2024-03-05T09:10:46.683Z,79.14
2024-03-05T09:13:14.910Z,79.01
2024-03-05T09:15:44.641Z,79.22
2024-03-05T09:18:16.385Z,79.21
2024-03-05T09:20:45.017Z,79.47
2024-03-05T09:23:13.283Z,79.58
2024-03-05T09:25:44.110Z,79.61
2024-03-05T09:28:12.867Z,79.32
2024-03-05T09:30:41.527Z,79.38
2024-03-05T09:33:12.464Z,79.63
2024-03-05T09:35:41.464Z,79.47
2024-03-05T09:38:09.922Z,80.06
2024-03-05T09:40:38.167Z,80.53
2024-03-05T09:43:06.238Z,81.12
2024-03-05T09:45:38.599Z,81.24
2024-03-05T09:48:08.013Z,81.22
2024-03-05T09:50:37.631Z,81.46
2024-03-05T09:53:06.177Z,82.10
2024-03-05T09:55:35.125Z,82.19
2024-03-05T09:58:05.869Z,82.49
2024-03-05T10:00:34.317Z,82.95
2024-03-05T10:03:03.752Z,82.77
2024-03-05T10:05:31.755Z,82.90
2024-03-05T10:08:00.045Z,82.76
2024-03-05T10:10:33.098Z,82.50
2024-03-05T10:13:03.562Z,83.04
2024-03-05T10:15:31.611Z,82.61
2024-03-05T10:17:59.792Z,82.93
2024-03-05T10:20:30.951Z,83.38
2024-03-05T10:23:03.450Z,83.20
2024-03-05T10:25:32.879Z,83.58
2024-03-05T10:28:04.462Z,83.67
2024-03-05T10:30:34.668Z,83.56
2024-03-05T10:33:04.209Z,83.56
2024-03-05T10:35:33.628Z,83.51
2024-03-05T10:38:02.892Z,83.61
2024-03-05T10:40:34.221Z,83.58
2024-03-05T10:43:06.256Z,83.51
2024-03-05T10:45:46.657Z,84.11
2024-03-05T10:48:17.234Z,84.26
2024-03-05T10:50:46.981Z,84.59
2024-03-05T10:53:15.212Z,84.28
2024-03-05T10:55:45.120Z,84.61
2024-03-05T10:58:14.849Z,85.01
2024-03-05T11:00:45.548Z,84.80
2024-03-05T11:03:16.517Z,84.36
2024-03-05T11:05:50.553Z,84.24
2024-03-05T11:08:22.528Z,84.45
2024-03-05T11:11:08.024Z,84.38
2024-03-05T11:13:38.243Z,84.46
2024-03-05T11:16:06.961Z,84.59
2024-03-05T11:18:35.683Z,84.73
2024-03-05T11:21:11.459Z,84.66
2024-03-05T11:23:42.477Z,84.69
2024-03-05T11:26:18.969Z,84.81
2024-03-05T11:28:46.925Z,84.52
2024-03-05T11:31:22.552Z,84.36
2024-03-05T11:33:59.524Z,84.18
2024-03-05T11:36:27.502Z,84.21
2024-03-05T11:38:58.264Z,84.70
2024-03-05T11:41:26.727Z,84.60
2024-03-05T11:43:55.086Z,84.75
2024-03-05T11:46:43.366Z,84.64
2024-03-05T11:49:11.804Z,85.04
2024-03-05T11:51:41.343Z,84.61
2024-03-05T11:54:10.611Z,84.89
2024-03-05T11:56:40.652Z,84.54
2024-03-05T11:59:10.413Z,84.89
2024-03-05T12:01:38.671Z,84.50
2024-03-05T12:04:09.849Z,84.54
2024-03-05T12:06:38.558Z,84.56
2024-03-05T12:09:26.593Z,84.39
2024-03-05T12:12:21.389Z,84.33
2024-03-05T12:14:56.704Z,84.77
2024-03-05T12:17:26.300Z,84.73
2024-03-05T12:19:58.544Z,84.77
2024-03-05T12:22:27.345Z,84.56
2024-03-05T12:24:55.578Z,85.07
2024-03-05T12:27:23.864Z,84.85
2024-03-05T12:29:52.775Z,84.75
2024-03-05T12:32:21.120Z,84.56
2024-03-05T12:34:49.644Z,84.77
2024-03-05T12:37:21.506Z,84.70
2024-03-05T12:39:59.119Z,84.52
2024-03-05T12:42:27.490Z,84.67
2024-03-05T12:45:06.049Z,84.59
2024-03-05T12:47:35.652Z,84.88
2024-03-05T12:50:04.210Z,84.88
2024-03-05T12:52:33.988Z,84.62
2024-03-05T12:55:03.495Z,84.84
2024-03-05T12:57:32.571Z,85.02
2024-03-05T13:00:02.476Z,85.45
2024-03-05T13:02:30.715Z,85.63
2024-03-05T13:05:00.889Z,85.76
2024-03-05T13:07:29.361Z,85.63
2024-03-05T13:09:58.268Z,85.50
2024-03-05T13:12:26.570Z,86.01
2024-03-05T13:14:54.540Z,85.64
2024-03-05T13:17:23.104Z,85.94
2024-03-05T13:19:56.815Z,86.12
2024-03-05T13:22:27.392Z,86.02
2024-03-05T13:24:56.692Z,86.73
2024-03-05T13:27:26.636Z,87.14
2024-03-05T13:30:01.879Z,87.73
2024-03-05T13:32:39.133Z,87.97
2024-03-05T13:35:13.201Z,88.36
2024-03-05T13:37:41.606Z,88.45
2024-03-05T13:40:14.480Z,88.52
2024-03-05T13:42:44.465Z,88.86
2024-03-05T13:45:20.534Z,89.26
2024-03-05T13:47:57.025Z,89.57
2024-03-05T13:50:29.503Z,90.04
2024-03-05T13:52:57.991Z,90.43
2024-03-05T13:55:28.391Z,90.78
2024-03-05T13:57:56.426Z,91.15
2024-03-05T14:00:33.653Z,91.48
2024-03-05T14:03:01.589Z,92.21
2024-03-05T14:05:30.550Z,92.23
2024-03-05T14:08:01.748Z,92.65
2024-03-05T14:10:31.610Z,92.73
2024-03-05T14:13:18.278Z,93.29
2024-03-05T14:15:46.280Z,93.62
2024-03-05T14:18:29.403Z,93.61
2024-03-05T14:20:57.479Z,94.02
2024-03-05T14:23:31.038Z,93.97
2024-03-05T14:26:24.057Z,93.55
2024-03-05T14:28:52.197Z,93.76
2024-03-05T14:33:59.340Z,94.06
2024-03-05T14:39:37.372Z,94.73
2024-03-05T14:42:10.050Z,94.86
2024-03-05T14:45:00.122Z,95.08
2024-03-05T14:47:48.775Z,95.06
2024-03-05T14:50:37.784Z,95.53
2024-03-05T14:53:07.763Z,95.70
2024-03-05T14:55:35.794Z,95.89
2024-03-05T14:58:06.670Z,96.31
2024-03-05T15:00:34.654Z,96.06
2024-03-05T15:03:02.693Z,95.99
2024-03-05T15:05:31.327Z,96.23
2024-03-05T15:07:59.476Z,96.12
2024-03-05T15:10:30.320Z,96.21
2024-03-05T15:12:58.337Z,96.53
2024-03-05T15:15:26.419Z,96.35
2024-03-05T15:17:55.246Z,96.45
2024-03-05T15:20:23.754Z,96.34
2024-03-05T15:22:52.496Z,96.90
2024-03-05T15:25:25.019Z,96.66
2024-03-05T15:28:01.790Z,96.95
2024-03-05T15:30:33.847Z,96.80
2024-03-05T15:33:02.971Z,97.16
2024-03-05T15:35:31.010Z,97.10
2024-03-05T15:38:00.187Z,97.36
2024-03-05T15:40:28.577Z,97.73
2024-03-05T15:42:58.329Z,97.42
2024-03-05T15:45:27.383Z,97.55
2024-03-05T15:47:57.743Z,97.49
2024-03-05T15:50:26.865Z,97.73
2024-03-05T15:52:56.051Z,97.43
2024-03-05T15:55:29.889Z,97.51
2024-03-05T15:58:04.615Z,97.58
2024-03-05T16:00:42.552Z,97.53
2024-03-05T16:03:18.335Z,97.41
2024-03-05T16:05:55.919Z,97.51
2024-03-05T16:08:32.184Z,97.59
2024-03-05T16:11:03.181Z,97.50
2024-03-05T16:13:31.795Z,97.39
2024-03-05T16:16:06.905Z,97.50
2024-03-05T16:18:35.551Z,97.62
2024-03-05T16:21:06.630Z,97.78
2024-03-05T16:23:34.700Z,97.60
2024-03-05T16:26:06.796Z,98.02
2024-03-05T16:28:39.634Z,97.93
2024-03-05T16:31:07.794Z,98.03
2024-03-05T16:33:35.788Z,98.22
2024-03-05T16:36:05.023Z,98.16
2024-03-05T16:38:33.435Z,98.24
2024-03-05T16:41:01.760Z,97.83
2024-03-05T16:43:31.648Z,97.67
2024-03-05T16:46:00.213Z,97.67
2024-03-05T16:48:28.147Z,97.31
2024-03-05T16:50:56.106Z,97.62
2024-03-05T16:53:24.206Z,97.23
2024-03-05T16:55:52.762Z,97.31
2024-03-05T16:58:20.800Z,97.35
2024-03-05T17:00:57.141Z,97.23
2024-03-05T17:03:30.747Z,96.97
2024-03-05T17:05:59.278Z,97.17
2024-03-05T17:08:28.672Z,97.00
2024-03-05T17:10:57.080Z,96.92
2024-03-05T17:13:28.724Z,97.26
2024-03-05T17:16:01.137Z,97.56
2024-03-05T17:18:31.449Z,97.86
2024-03-05T17:21:02.537Z,98.04
2024-03-05T17:23:31.205Z,98.19
2024-03-05T17:25:59.284Z,98.19
2024-03-05T17:28:28.570Z,98.38
2024-03-05T17:30:57.944Z,98.92
2024-03-05T17:33:26.418Z,98.69
2024-03-05T17:35:57.017Z,99.02
2024-03-05T17:38:26.861Z,99.14
2024-03-05T17:40:57.101Z,99.14
2024-03-05T17:43:25.745Z,99.08
2024-03-05T17:45:55.513Z,99.08
2024-03-05T17:48:24.451Z,99.14
2024-03-05T17:50:55.521Z,98.84
2024-03-05T17:53:23.766Z,98.72
2024-03-05T17:55:52.003Z,98.57
2024-03-05T17:58:29.752Z,98.57
2024-03-05T18:01:05.391Z,98.32
2024-03-05T18:03:36.867Z,98.20
2024-03-05T18:06:06.663Z,98.16
2024-03-05T18:08:34.984Z,97.82
2024-03-05T18:11:03.396Z,97.85
2024-03-05T18:13:34.627Z,97.66
2024-03-05T18:16:03.425Z,97.33
2024-03-05T18:18:32.200Z,97.17
2024-03-05T18:21:01.073Z,97.25
2024-03-05T18:23:28.997Z,97.15
2024-03-05T18:25:56.997Z,96.73
2024-03-05T18:28:25.055Z,96.55
2024-03-05T18:30:53.518Z,96.58
2024-03-05T18:33:23.281Z,96.43
2024-03-05T18:35:55.236Z,96.20
2024-03-05T18:38:28.442Z,96.35
2024-03-05T18:41:02.896Z,95.99
2024-03-05T18:43:32.124Z,95.93
2024-03-05T18:46:02.470Z,95.58
2024-03-05T18:48:31.525Z,95.57
2024-03-05T18:51:00.125Z,95.46
2024-03-05T18:53:38.986Z,95.44
2024-03-05T18:56:13.982Z,95.22
2024-03-05T18:58:43.171Z,94.81
2024-03-05T19:01:12.196Z,94.66
2024-03-05T19:03:40.959Z,94.42
2024-03-05T19:06:08.872Z,94.09
2024-03-05T19:08:36.769Z,94.06
2024-03-05T19:11:04.785Z,94.28
2024-03-05T19:13:32.822Z,94.19
2024-03-05T19:16:05.786Z,94.44
2024-03-05T19:18:34.405Z,94.38
2024-03-05T19:21:02.988Z,94.67
2024-03-05T19:23:30.948Z,94.70
2024-03-05T19:25:59.636Z,94.45
2024-03-05T19:28:28.437Z,94.44
2024-03-05T19:30:57.762Z,94.07
2024-03-05T19:33:26.830Z,94.10
2024-03-05T19:35:56.071Z,93.74
2024-03-05T19:38:24.726Z,93.63
2024-03-05T19:40:53.561Z,93.35
2024-03-05T19:43:21.715Z,92.85
2024-03-05T19:45:50.087Z,92.88
2024-03-05T19:48:18.814Z,92.45
2024-03-05T19:50:48.100Z,92.25
2024-03-05T19:53:16.048Z,92.01
2024-03-05T19:55:44.993Z,92.06
2024-03-05T19:58:13.111Z,92.27
2024-03-05T20:00:41.584Z,92.26
2024-03-05T20:03:09.675Z,92.05
2024-03-05T20:05:38.296Z,91.76
2024-03-05T20:08:06.982Z,91.62
2024-03-05T20:10:35.077Z,91.86
2024-03-05T20:13:04.115Z,91.92
2024-03-05T20:15:33.998Z,91.75
2024-03-05T20:18:01.953Z,91.90
2024-03-05T20:20:30.165Z,92.15
2024-03-05T20:22:58.979Z,92.33
2024-03-05T20:25:27.045Z,92.66
2024-03-05T20:27:56.193Z,92.29
2024-03-05T20:30:24.361Z,93.01
2024-03-05T20:32:52.977Z,92.86
2024-03-05T20:35:21.504Z,92.73
2024-03-05T20:38:02.904Z,92.66
2024-03-05T20:40:31.017Z,92.10
2024-03-05T20:43:00.007Z,91.83
2024-03-05T20:45:28.984Z,92.18
2024-03-05T20:47:57.491Z,92.28
2024-03-05T20:50:25.698Z,92.92
2024-03-05T20:52:53.684Z,92.66
2024-03-05T20:55:21.872Z,93.13
2024-03-05T20:57:52.308Z,93.47
2024-03-05T21:00:21.471Z,93.09
2024-03-05T21:02:55.052Z,92.36
2024-03-05T21:05:23.311Z,91.10
2024-03-05T21:07:55.992Z,91.39
2024-03-05T21:10:24.061Z,90.92
2024-03-05T21:12:52.070Z,90.51
2024-03-05T21:15:23.378Z,90.67
2024-03-05T21:17:54.429Z,89.12
2024-03-05T21:20:23.048Z,88.76
2024-03-05T21:22:51.364Z,87.98
2024-03-05T21:25:26.411Z,86.88
2024-03-05T21:27:57.190Z,87.63
2024-03-05T21:30:25.192Z,88.93
2024-03-05T21:32:53.175Z,89.91
2024-03-05T21:35:21.803Z,90.80
2024-03-05T21:37:50.013Z,91.01
2024-03-05T21:40:19.235Z,91.47
2024-03-05T21:42:47.842Z,91.49
2024-03-05T21:45:18.702Z,89.51
2024-03-05T21:47:47.469Z,89.66
2024-03-05T21:52:57.475Z,87.48
2024-03-05T21:55:25.576Z,88.05
2024-03-05T21:57:54.313Z,89.55
2024-03-05T22:00:24.091Z,89.73
2024-03-05T22:02:52.055Z,90.32
2024-03-05T22:05:24.009Z,90.83
2024-03-05T22:07:58.614Z,90.74
2024-03-05T22:10:26.615Z,92.06
2024-03-05T22:12:54.571Z,92.88
2024-03-05T22:15:22.589Z,93.38
2024-03-05T22:17:50.657Z,92.75
2024-03-05T22:20:19.305Z,93.01
2024-03-05T22:22:47.300Z,94.65
2024-03-05T22:25:15.279Z,95.50
2024-03-05T22:27:43.254Z,95.58
2024-03-05T22:30:11.562Z,97.06
2024-03-05T22:32:39.737Z,95.73
2024-03-05T22:35:11.602Z,96.65
2024-03-05T22:37:42.872Z,96.65
2024-03-05T22:40:14.065Z,96.79
2024-03-05T22:42:42.039Z,97.82
2024-03-05T22:45:12.192Z,97.66
2024-03-05T22:47:40.285Z,96.46
2024-03-05T22:50:13.856Z,96.42
2024-03-05T22:52:42.012Z,96.00
2024-03-05T22:55:14.092Z,95.20
2024-03-05T22:57:45.473Z,94.98
2024-03-05T23:00:40.020Z,94.23
2024-03-05T23:03:08.508Z,91.99
2024-03-05T23:05:36.460Z,91.95
2024-03-05T23:08:04.557Z,91.82
2024-03-05T23:10:33.032Z,91.49
2024-03-05T23:13:01.058Z,91.35
2024-03-05T23:15:28.978Z,91.74
2024-03-05T23:17:56.957Z,91.07
2024-03-05T23:20:25.032Z,91.00
2024-03-05T23:22:54.985Z,90.78
2024-03-05T23:25:24.064Z,89.86
2024-03-05T23:27:52.137Z,89.57
2024-03-05T23:30:23.331Z,89.24
2024-03-05T23:32:53.624Z,88.00
2024-03-05T23:35:22.083Z,88.04
2024-03-05T23:37:50.837Z,87.36
2024-03-05T23:40:19.288Z,86.42
2024-03-05T23:42:48.681Z,86.22
2024-03-05T23:45:16.740Z,84.95
2024-03-05T23:47:47.857Z,86.12
2024-03-05T23:50:16.595Z,85.34
2024-03-05T23:52:44.557Z,86.99
2024-03-05T23:55:15.683Z,86.98
2024-03-05T23:58:00.948Z,86.32
